TimeHST,TemperatureF,Dew PointF,Humidity,Sea Level PressureIn,VisibilityMPH,Wind Direction,Wind SpeedMPH,Gust SpeedMPH,PrecipitationIn,Events,Conditions,WindDirDegrees,DateUTC
12:54 AM,70.0,64.0,81,29.97,10.0,SE,4.6,-,N/A,,Clear,130,2012-11-22 10:54:00
1:54 AM,68.0,63.0,84,29.96,10.0,Calm,Calm,-,N/A,,Clear,0,2012-11-22 11:54:00
2:54 AM,66.0,62.1,87,29.96,10.0,South,3.5,-,N/A,,Clear,190,2012-11-22 12:54:00
3:54 AM,66.0,62.1,87,29.94,10.0,SSE,3.5,-,N/A,,Clear,150,2012-11-22 13:54:00
4:54 AM,66.9,62.1,84,29.95,10.0,South,4.6,-,N/A,,Clear,170,2012-11-22 14:54:00
5:54 AM,66.9,63.0,87,29.95,10.0,SE,3.5,-,N/A,,Clear,130,2012-11-22 15:54:00
6:54 AM,66.0,63.0,90,29.97,10.0,SSE,3.5,-,N/A,,Clear,160,2012-11-22 16:54:00
7:54 AM,70.0,64.0,81,29.99,10.0,SW,3.5,-,N/A,,Clear,220,2012-11-22 17:54:00
8:54 AM,73.9,64.0,71,29.99,10.0,Calm,Calm,-,N/A,,Clear,0,2012-11-22 18:54:00
9:54 AM,75.9,66.0,71,30.00,10.0,Calm,Calm,-,N/A,,Clear,0,2012-11-22 19:54:00
10:54 AM,78.1,66.0,66,29.97,10.0,Calm,Calm,-,N/A,,Clear,0,2012-11-22 20:54:00
11:54 AM,81.0,66.0,60,29.96,10.0,North,5.8,-,0.00,,Partly Cloudy,360,2012-11-22 21:54:00
12:54 PM,79.0,66.0,64,29.94,10.0,NNW,6.9,-,N/A,,Partly Cloudy,340,2012-11-22 22:54:00
1:54 PM,78.1,66.9,68,29.91,10.0,NNW,8.1,-,N/A,,Scattered Clouds,340,2012-11-22 23:54:00
2:54 PM,79.0,68.0,69,29.91,10.0,NNW,5.8,-,N/A,,Scattered Clouds,340,2012-11-23 00:54:00
3:54 PM,79.0,68.0,69,29.91,10.0,Calm,Calm,-,N/A,,Partly Cloudy,0,2012-11-23 01:54:00
4:54 PM,77.0,69.1,76,29.92,10.0,South,6.9,-,N/A,,Partly Cloudy,190,2012-11-23 02:54:00
5:54 PM,75.9,70.0,82,29.95,10.0,SSW,4.6,-,N/A,,Overcast,200,2012-11-23 03:54:00
6:54 PM,75.0,70.0,84,29.96,10.0,Calm,Calm,-,N/A,,Scattered Clouds,0,2012-11-23 04:54:00
7:54 PM,73.0,69.1,87,29.99,10.0,East,5.8,-,N/A,,Scattered Clouds,80,2012-11-23 05:54:00
8:54 PM,71.1,66.9,87,30.00,10.0,SE,3.5,-,N/A,,Clear,130,2012-11-23 06:54:00
9:54 PM,70.0,66.0,87,30.00,10.0,Calm,Calm,-,N/A,,Clear,0,2012-11-23 07:54:00
10:54 PM,68.0,64.9,90,30.00,10.0,Calm,Calm,-,N/A,,Partly Cloudy,0,2012-11-23 08:54:00
11:54 PM,66.9,64.0,90,29.99,10.0,SSE,3.5,-,N/A,,Partly Cloudy,150,2012-11-23 09:54:00